sensor_id;sensor_type;location;lat;lon;timestamp;P1;durP1;ratioP1;P2;durP2;ratioP2
36817;SDS011;22761;51.542;16.450;2023-05-10T00:01:26;5.50;;;3.50;;
36817;SDS011;22761;51.542;16.450;2023-05-10T00:03:54;7.10;;;3.60;;
36817;SDS011;22761;51.542;16.450;2023-05-10T00:06:23;6.00;;;3.70;;
36817;SDS011;22761;51.542;16.450;2023-05-10T00:08:51;6.00;;;3.70;;
36817;SDS011;22761;51.542;16.450;2023-05-10T00:11:19;6.80;;;3.70;;
36817;SDS011;22761;51.542;16.450;2023-05-10T00:13:50;5.90;;;3.20;;
36817;SDS011;22761;51.542;16.450;2023-05-10T00:16:18;5.80;;;3.70;;
36817;SDS011;22761;51.542;16.450;2023-05-10T00:18:46;5.20;;;3.60;;
36817;SDS011;22761;51.542;16.450;2023-05-10T00:21:15;5.10;;;3.90;;
36817;SDS011;22761;51.542;16.450;2023-05-10T00:23:43;6.80;;;3.50;;
36817;SDS011;22761;51.542;16.450;2023-05-10T00:26:11;6.70;;;4.20;;
36817;SDS011;22761;51.542;16.450;2023-05-10T00:28:40;6.70;;;3.90;;
36817;SDS011;22761;51.542;16.450;2023-05-10T00:31:09;5.40;;;3.80;;
36817;SDS011;22761;51.542;16.450;2023-05-10T00:33:37;6.50;;;3.80;;
36817;SDS011;22761;51.542;16.450;2023-05-10T00:36:05;11.20;;;4.10;;
36817;SDS011;22761;51.542;16.450;2023-05-10T00:38:35;6.10;;;4.10;;
36817;SDS011;22761;51.542;16.450;2023-05-10T00:41:03;8.50;;;3.90;;
36817;SDS011;22761;51.542;16.450;2023-05-10T00:43:32;6.30;;;4.00;;
36817;SDS011;22761;51.542;16.450;2023-05-10T00:46:01;5.70;;;3.60;;
36817;SDS011;22761;51.542;16.450;2023-05-10T00:48:29;7.20;;;4.10;;
36817;SDS011;22761;51.542;16.450;2023-05-10T00:50:58;6.40;;;3.70;;
36817;SDS011;22761;51.542;16.450;2023-05-10T00:53:26;6.40;;;4.10;;
36817;SDS011;22761;51.542;16.450;2023-05-10T00:55:55;7.90;;;3.80;;
36817;SDS011;22761;51.542;16.450;2023-05-10T00:58:23;6.90;;;4.50;;
36817;SDS011;22761;51.542;16.450;2023-05-10T01:00:55;7.90;;;4.20;;
36817;SDS011;22761;51.542;16.450;2023-05-10T01:03:25;6.50;;;3.90;;
36817;SDS011;22761;51.542;16.450;2023-05-10T01:05:54;7.80;;;3.90;;
36817;SDS011;22761;51.542;16.450;2023-05-10T01:08:22;8.10;;;4.50;;
36817;SDS011;22761;51.542;16.450;2023-05-10T01:10:51;6.10;;;3.90;;
36817;SDS011;22761;51.542;16.450;2023-05-10T01:13:29;7.70;;;4.00;;
36817;SDS011;22761;51.542;16.450;2023-05-10T01:16:02;6.30;;;4.10;;
36817;SDS011;22761;51.542;16.450;2023-05-10T01:18:32;6.70;;;4.20;;
36817;SDS011;22761;51.542;16.450;2023-05-10T01:38:42;10.40;;;4.40;;
36817;SDS011;22761;51.542;16.450;2023-05-10T01:41:37;6.70;;;4.30;;
36817;SDS011;22761;51.542;16.450;2023-05-10T01:44:24;11.20;;;4.30;;
36817;SDS011;22761;51.542;16.450;2023-05-10T01:47:17;8.60;;;4.40;;
36817;SDS011;22761;51.542;16.450;2023-05-10T01:50:14;8.90;;;4.60;;
36817;SDS011;22761;51.542;16.450;2023-05-10T01:52:44;6.90;;;4.60;;
36817;SDS011;22761;51.542;16.450;2023-05-10T01:55:20;5.30;;;4.20;;
36817;SDS011;22761;51.542;16.450;2023-05-10T01:57:51;6.40;;;3.90;;
36817;SDS011;22761;51.542;16.450;2023-05-10T02:00:29;7.70;;;4.40;;
36817;SDS011;22761;51.542;16.450;2023-05-10T02:02:58;7.70;;;4.40;;
36817;SDS011;22761;51.542;16.450;2023-05-10T02:05:28;5.90;;;3.90;;
36817;SDS011;22761;51.542;16.450;2023-05-10T02:07:57;7.70;;;4.40;;
36817;SDS011;22761;51.542;16.450;2023-05-10T02:10:27;6.00;;;4.40;;
36817;SDS011;22761;51.542;16.450;2023-05-10T02:12:58;8.80;;;5.00;;
36817;SDS011;22761;51.542;16.450;2023-05-10T02:15:27;7.40;;;4.60;;
36817;SDS011;22761;51.542;16.450;2023-05-10T02:17:55;7.90;;;5.10;;
36817;SDS011;22761;51.542;16.450;2023-05-10T02:20:24;7.50;;;4.60;;
36817;SDS011;22761;51.542;16.450;2023-05-10T02:22:54;6.70;;;4.70;;
36817;SDS011;22761;51.542;16.450;2023-05-10T02:27:54;7.20;;;4.60;;
36817;SDS011;22761;51.542;16.450;2023-05-10T02:30:23;9.30;;;4.50;;
36817;SDS011;22761;51.542;16.450;2023-05-10T02:32:52;6.40;;;4.30;;
36817;SDS011;22761;51.542;16.450;2023-05-10T02:35:20;8.30;;;4.60;;
36817;SDS011;22761;51.542;16.450;2023-05-10T02:37:49;8.10;;;4.70;;
36817;SDS011;22761;51.542;16.450;2023-05-10T02:40:18;6.40;;;4.40;;
36817;SDS011;22761;51.542;16.450;2023-05-10T02:42:48;7.50;;;4.50;;
36817;SDS011;22761;51.542;16.450;2023-05-10T02:45:20;5.90;;;4.20;;
36817;SDS011;22761;51.542;16.450;2023-05-10T02:47:51;6.20;;;4.80;;
36817;SDS011;22761;51.542;16.450;2023-05-10T02:50:21;7.10;;;4.50;;
36817;SDS011;22761;51.542;16.450;2023-05-10T02:52:50;7.20;;;4.70;;
36817;SDS011;22761;51.542;16.450;2023-05-10T02:55:22;8.30;;;4.80;;
36817;SDS011;22761;51.542;16.450;2023-05-10T02:57:55;7.00;;;4.60;;
36817;SDS011;22761;51.542;16.450;2023-05-10T03:00:26;7.90;;;4.70;;
36817;SDS011;22761;51.542;16.450;2023-05-10T03:02:55;6.20;;;4.40;;
36817;SDS011;22761;51.542;16.450;2023-05-10T03:05:23;7.20;;;4.50;;
36817;SDS011;22761;51.542;16.450;2023-05-10T03:07:52;8.40;;;4.80;;
36817;SDS011;22761;51.542;16.450;2023-05-10T03:10:21;12.90;;;5.20;;
36817;SDS011;22761;51.542;16.450;2023-05-10T03:18:30;6.80;;;4.50;;
36817;SDS011;22761;51.542;16.450;2023-05-10T03:21:22;6.50;;;4.20;;
36817;SDS011;22761;51.542;16.450;2023-05-10T03:24:12;9.50;;;4.80;;
36817;SDS011;22761;51.542;16.450;2023-05-10T03:26:43;6.30;;;4.60;;
36817;SDS011;22761;51.542;16.450;2023-05-10T03:29:16;5.90;;;4.70;;
36817;SDS011;22761;51.542;16.450;2023-05-10T03:31:45;7.30;;;4.10;;
36817;SDS011;22761;51.542;16.450;2023-05-10T03:34:14;7.70;;;4.40;;
36817;SDS011;22761;51.542;16.450;2023-05-10T03:36:42;6.70;;;4.20;;
36817;SDS011;22761;51.542;16.450;2023-05-10T03:39:11;8.70;;;4.70;;
36817;SDS011;22761;51.542;16.450;2023-05-10T03:41:39;7.70;;;4.40;;
36817;SDS011;22761;51.542;16.450;2023-05-10T03:44:08;6.30;;;4.10;;
36817;SDS011;22761;51.542;16.450;2023-05-10T03:46:37;6.80;;;4.40;;
36817;SDS011;22761;51.542;16.450;2023-05-10T03:49:05;7.40;;;4.70;;
36817;SDS011;22761;51.542;16.450;2023-05-10T03:51:34;4.90;;;3.60;;
36817;SDS011;22761;51.542;16.450;2023-05-10T03:54:02;8.10;;;4.10;;
36817;SDS011;22761;51.542;16.450;2023-05-10T03:56:31;7.90;;;4.00;;
36817;SDS011;22761;51.542;16.450;2023-05-10T03:59:00;7.20;;;3.90;;
36817;SDS011;22761;51.542;16.450;2023-05-10T04:01:31;6.50;;;4.30;;
36817;SDS011;22761;51.542;16.450;2023-05-10T04:03:59;8.60;;;4.40;;
36817;SDS011;22761;51.542;16.450;2023-05-10T04:06:27;7.50;;;4.60;;
36817;SDS011;22761;51.542;16.450;2023-05-10T04:08:56;7.30;;;4.60;;
36817;SDS011;22761;51.542;16.450;2023-05-10T04:11:27;6.10;;;4.00;;
36817;SDS011;22761;51.542;16.450;2023-05-10T04:13:55;9.80;;;4.40;;
36817;SDS011;22761;51.542;16.450;2023-05-10T04:16:24;7.30;;;3.90;;
36817;SDS011;22761;51.542;16.450;2023-05-10T04:18:52;6.10;;;3.80;;
36817;SDS011;22761;51.542;16.450;2023-05-10T04:21:21;6.20;;;3.80;;
36817;SDS011;22761;51.542;16.450;2023-05-10T04:23:49;5.20;;;3.70;;
36817;SDS011;22761;51.542;16.450;2023-05-10T04:26:17;8.70;;;4.10;;
36817;SDS011;22761;51.542;16.450;2023-05-10T04:28:46;7.40;;;3.70;;
36817;SDS011;22761;51.542;16.450;2023-05-10T04:31:14;6.70;;;3.70;;
36817;SDS011;22761;51.542;16.450;2023-05-10T04:33:42;5.80;;;3.40;;
36817;SDS011;22761;51.542;16.450;2023-05-10T04:36:11;6.70;;;4.10;;
36817;SDS011;22761;51.542;16.450;2023-05-10T04:38:39;7.00;;;3.50;;
36817;SDS011;22761;51.542;16.450;2023-05-10T04:41:08;5.30;;;3.60;;
36817;SDS011;22761;51.542;16.450;2023-05-10T04:43:37;5.70;;;3.80;;
36817;SDS011;22761;51.542;16.450;2023-05-10T04:46:06;5.20;;;3.60;;
36817;SDS011;22761;51.542;16.450;2023-05-10T04:48:37;5.20;;;3.60;;
36817;SDS011;22761;51.542;16.450;2023-05-10T04:51:06;5.00;;;3.60;;
36817;SDS011;22761;51.542;16.450;2023-05-10T04:53:34;7.70;;;3.90;;
36817;SDS011;22761;51.542;16.450;2023-05-10T04:56:02;6.00;;;3.80;;
36817;SDS011;22761;51.542;16.450;2023-05-10T04:58:31;7.90;;;3.80;;
36817;SDS011;22761;51.542;16.450;2023-05-10T05:01:08;3.80;;;3.20;;
36817;SDS011;22761;51.542;16.450;2023-05-10T05:03:38;6.30;;;3.90;;
36817;SDS011;22761;51.542;16.450;2023-05-10T05:06:06;5.50;;;3.50;;
36817;SDS011;22761;51.542;16.450;2023-05-10T05:08:34;4.60;;;2.80;;
36817;SDS011;22761;51.542;16.450;2023-05-10T05:11:03;5.50;;;3.40;;
36817;SDS011;22761;51.542;16.450;2023-05-10T05:13:31;6.40;;;3.70;;
36817;SDS011;22761;51.542;16.450;2023-05-10T05:16:00;5.10;;;3.40;;
36817;SDS011;22761;51.542;16.450;2023-05-10T05:18:30;6.40;;;3.80;;
36817;SDS011;22761;51.542;16.450;2023-05-10T05:20:58;6.40;;;3.40;;
36817;SDS011;22761;51.542;16.450;2023-05-10T05:23:27;4.80;;;3.30;;
36817;SDS011;22761;51.542;16.450;2023-05-10T05:25:55;4.90;;;3.30;;
36817;SDS011;22761;51.542;16.450;2023-05-10T05:28:23;7.20;;;3.70;;
36817;SDS011;22761;51.542;16.450;2023-05-10T05:30:52;6.90;;;3.90;;
36817;SDS011;22761;51.542;16.450;2023-05-10T05:33:20;6.20;;;3.20;;
36817;SDS011;22761;51.542;16.450;2023-05-10T05:35:48;9.30;;;3.70;;
36817;SDS011;22761;51.542;16.450;2023-05-10T05:38:18;6.20;;;3.70;;
36817;SDS011;22761;51.542;16.450;2023-05-10T05:40:46;6.50;;;3.50;;
36817;SDS011;22761;51.542;16.450;2023-05-10T05:43:15;7.90;;;3.70;;
36817;SDS011;22761;51.542;16.450;2023-05-10T05:45:43;5.80;;;3.30;;
36817;SDS011;22761;51.542;16.450;2023-05-10T05:48:11;4.10;;;3.00;;
36817;SDS011;22761;51.542;16.450;2023-05-10T05:50:40;9.70;;;3.80;;
36817;SDS011;22761;51.542;16.450;2023-05-10T05:53:08;6.10;;;3.50;;
36817;SDS011;22761;51.542;16.450;2023-05-10T05:55:36;5.90;;;2.90;;
36817;SDS011;22761;51.542;16.450;2023-05-10T05:58:05;6.00;;;3.50;;
36817;SDS011;22761;51.542;16.450;2023-05-10T06:00:33;6.80;;;3.40;;
36817;SDS011;22761;51.542;16.450;2023-05-10T06:03:01;4.80;;;2.70;;
36817;SDS011;22761;51.542;16.450;2023-05-10T06:05:30;10.80;;;3.10;;
36817;SDS011;22761;51.542;16.450;2023-05-10T06:07:59;4.90;;;3.10;;
36817;SDS011;22761;51.542;16.450;2023-05-10T06:10:28;5.70;;;3.20;;
36817;SDS011;22761;51.542;16.450;2023-05-10T06:12:56;7.90;;;3.10;;
36817;SDS011;22761;51.542;16.450;2023-05-10T06:15:24;6.60;;;3.00;;
36817;SDS011;22761;51.542;16.450;2023-05-10T06:17:53;4.90;;;2.80;;
36817;SDS011;22761;51.542;16.450;2023-05-10T06:20:21;11.50;;;3.60;;
36817;SDS011;22761;51.542;16.450;2023-05-10T06:22:49;6.10;;;3.00;;
36817;SDS011;22761;51.542;16.450;2023-05-10T06:25:18;5.20;;;3.00;;
36817;SDS011;22761;51.542;16.450;2023-05-10T06:27:46;9.00;;;3.00;;
36817;SDS011;22761;51.542;16.450;2023-05-10T06:30:19;4.70;;;2.90;;
36817;SDS011;22761;51.542;16.450;2023-05-10T06:32:50;3.60;;;2.60;;
36817;SDS011;22761;51.542;16.450;2023-05-10T06:35:19;12.10;;;3.20;;
36817;SDS011;22761;51.542;16.450;2023-05-10T06:37:48;28.80;;;4.40;;
36817;SDS011;22761;51.542;16.450;2023-05-10T06:40:17;7.70;;;3.20;;
36817;SDS011;22761;51.542;16.450;2023-05-10T06:42:46;5.40;;;2.70;;
36817;SDS011;22761;51.542;16.450;2023-05-10T06:45:15;3.50;;;2.50;;
36817;SDS011;22761;51.542;16.450;2023-05-10T06:47:44;7.10;;;3.10;;
36817;SDS011;22761;51.542;16.450;2023-05-10T06:50:13;4.40;;;2.50;;
36817;SDS011;22761;51.542;16.450;2023-05-10T06:52:41;5.10;;;3.20;;
36817;SDS011;22761;51.542;16.450;2023-05-10T06:55:10;6.30;;;2.90;;
36817;SDS011;22761;51.542;16.450;2023-05-10T06:57:39;4.60;;;2.60;;
36817;SDS011;22761;51.542;16.450;2023-05-10T07:00:07;3.60;;;2.80;;
36817;SDS011;22761;51.542;16.450;2023-05-10T07:02:37;6.40;;;2.90;;
36817;SDS011;22761;51.542;16.450;2023-05-10T07:05:06;4.60;;;3.10;;
36817;SDS011;22761;51.542;16.450;2023-05-10T07:07:34;5.60;;;3.30;;
36817;SDS011;22761;51.542;16.450;2023-05-10T07:10:03;4.00;;;2.80;;
36817;SDS011;22761;51.542;16.450;2023-05-10T07:12:31;4.60;;;2.70;;
36817;SDS011;22761;51.542;16.450;2023-05-10T07:15:00;5.10;;;2.80;;
36817;SDS011;22761;51.542;16.450;2023-05-10T07:17:28;5.40;;;3.00;;
36817;SDS011;22761;51.542;16.450;2023-05-10T07:19:56;5.70;;;3.00;;
36817;SDS011;22761;51.542;16.450;2023-05-10T07:22:25;7.10;;;3.10;;
36817;SDS011;22761;51.542;16.450;2023-05-10T07:24:53;10.60;;;3.80;;
36817;SDS011;22761;51.542;16.450;2023-05-10T07:27:22;7.10;;;2.80;;
36817;SDS011;22761;51.542;16.450;2023-05-10T07:29:50;7.40;;;3.30;;
36817;SDS011;22761;51.542;16.450;2023-05-10T07:32:18;5.10;;;2.90;;
36817;SDS011;22761;51.542;16.450;2023-05-10T07:34:46;5.20;;;2.70;;
36817;SDS011;22761;51.542;16.450;2023-05-10T07:37:15;4.20;;;2.90;;
36817;SDS011;22761;51.542;16.450;2023-05-10T07:39:43;4.50;;;2.60;;
36817;SDS011;22761;51.542;16.450;2023-05-10T07:42:11;7.20;;;2.90;;
36817;SDS011;22761;51.542;16.450;2023-05-10T07:44:39;4.80;;;2.90;;
36817;SDS011;22761;51.542;16.450;2023-05-10T07:47:08;4.00;;;2.30;;
36817;SDS011;22761;51.542;16.450;2023-05-10T07:49:36;4.50;;;2.50;;
36817;SDS011;22761;51.542;16.450;2023-05-10T07:52:04;4.30;;;2.60;;
36817;SDS011;22761;51.542;16.450;2023-05-10T07:54:33;3.90;;;2.70;;
36817;SDS011;22761;51.542;16.450;2023-05-10T07:57:01;6.50;;;3.00;;
36817;SDS011;22761;51.542;16.450;2023-05-10T07:59:29;7.80;;;2.70;;
36817;SDS011;22761;51.542;16.450;2023-05-10T08:01:58;5.80;;;2.80;;
36817;SDS011;22761;51.542;16.450;2023-05-10T08:04:26;5.40;;;2.80;;
36817;SDS011;22761;51.542;16.450;2023-05-10T08:06:54;5.70;;;3.00;;
36817;SDS011;22761;51.542;16.450;2023-05-10T08:09:23;4.00;;;2.60;;
36817;SDS011;22761;51.542;16.450;2023-05-10T08:11:52;6.20;;;2.60;;
36817;SDS011;22761;51.542;16.450;2023-05-10T08:14:20;4.80;;;2.50;;
36817;SDS011;22761;51.542;16.450;2023-05-10T08:16:48;3.20;;;2.30;;
36817;SDS011;22761;51.542;16.450;2023-05-10T08:19:16;4.50;;;2.40;;
36817;SDS011;22761;51.542;16.450;2023-05-10T08:21:49;3.50;;;2.80;;
36817;SDS011;22761;51.542;16.450;2023-05-10T08:24:17;3.70;;;2.10;;
36817;SDS011;22761;51.542;16.450;2023-05-10T08:26:45;6.20;;;3.10;;
36817;SDS011;22761;51.542;16.450;2023-05-10T08:29:14;4.70;;;2.50;;
36817;SDS011;22761;51.542;16.450;2023-05-10T08:31:43;6.60;;;2.30;;
36817;SDS011;22761;51.542;16.450;2023-05-10T08:34:11;4.60;;;2.40;;
36817;SDS011;22761;51.542;16.450;2023-05-10T08:36:39;4.60;;;2.30;;
36817;SDS011;22761;51.542;16.450;2023-05-10T08:39:07;7.50;;;2.20;;
36817;SDS011;22761;51.542;16.450;2023-05-10T08:41:58;5.00;;;2.20;;
36817;SDS011;22761;51.542;16.450;2023-05-10T08:44:33;5.90;;;2.60;;
36817;SDS011;22761;51.542;16.450;2023-05-10T08:47:05;4.60;;;2.10;;
36817;SDS011;22761;51.542;16.450;2023-05-10T08:49:34;4.50;;;2.20;;
36817;SDS011;22761;51.542;16.450;2023-05-10T08:52:03;5.40;;;2.30;;
36817;SDS011;22761;51.542;16.450;2023-05-10T08:57:02;2.70;;;2.00;;
36817;SDS011;22761;51.542;16.450;2023-05-10T08:59:30;5.10;;;2.30;;
36817;SDS011;22761;51.542;16.450;2023-05-10T09:01:59;4.00;;;2.10;;
36817;SDS011;22761;51.542;16.450;2023-05-10T09:04:28;4.00;;;2.40;;
36817;SDS011;22761;51.542;16.450;2023-05-10T09:06:57;3.30;;;1.90;;
36817;SDS011;22761;51.542;16.450;2023-05-10T09:09:25;7.10;;;2.30;;
36817;SDS011;22761;51.542;16.450;2023-05-10T09:11:55;5.80;;;1.90;;
36817;SDS011;22761;51.542;16.450;2023-05-10T09:14:24;6.00;;;2.20;;
36817;SDS011;22761;51.542;16.450;2023-05-10T09:16:53;6.10;;;2.20;;
36817;SDS011;22761;51.542;16.450;2023-05-10T09:19:23;5.80;;;2.50;;
36817;SDS011;22761;51.542;16.450;2023-05-10T09:21:51;5.20;;;2.00;;
36817;SDS011;22761;51.542;16.450;2023-05-10T09:24:19;3.60;;;1.90;;
36817;SDS011;22761;51.542;16.450;2023-05-10T09:26:53;8.40;;;1.90;;
36817;SDS011;22761;51.542;16.450;2023-05-10T09:29:21;6.10;;;2.00;;
36817;SDS011;22761;51.542;16.450;2023-05-10T09:31:50;2.80;;;1.80;;
36817;SDS011;22761;51.542;16.450;2023-05-10T09:34:20;5.70;;;2.40;;
36817;SDS011;22761;51.542;16.450;2023-05-10T09:36:51;4.10;;;2.30;;
36817;SDS011;22761;51.542;16.450;2023-05-10T09:39:20;3.00;;;2.00;;
36817;SDS011;22761;51.542;16.450;2023-05-10T09:41:49;3.70;;;2.10;;
36817;SDS011;22761;51.542;16.450;2023-05-10T09:44:17;4.20;;;1.90;;
36817;SDS011;22761;51.542;16.450;2023-05-10T09:46:50;4.10;;;1.90;;
36817;SDS011;22761;51.542;16.450;2023-05-10T09:49:19;4.00;;;2.40;;
36817;SDS011;22761;51.542;16.450;2023-05-10T09:52:05;5.40;;;2.40;;
36817;SDS011;22761;51.542;16.450;2023-05-10T09:54:34;5.80;;;2.00;;
36817;SDS011;22761;51.542;16.450;2023-05-10T09:57:02;3.30;;;2.10;;
36817;SDS011;22761;51.542;16.450;2023-05-10T09:59:32;4.60;;;2.20;;
36817;SDS011;22761;51.542;16.450;2023-05-10T10:02:02;6.30;;;2.00;;
36817;SDS011;22761;51.542;16.450;2023-05-10T10:04:31;2.30;;;1.70;;
36817;SDS011;22761;51.542;16.450;2023-05-10T10:07:04;4.80;;;2.00;;
36817;SDS011;22761;51.542;16.450;2023-05-10T10:09:33;4.90;;;2.20;;
36817;SDS011;22761;51.542;16.450;2023-05-10T10:12:02;2.40;;;1.80;;
36817;SDS011;22761;51.542;16.450;2023-05-10T10:14:31;5.80;;;2.30;;
36817;SDS011;22761;51.542;16.450;2023-05-10T10:17:00;5.00;;;1.80;;
36817;SDS011;22761;51.542;16.450;2023-05-10T10:19:32;10.30;;;2.30;;
36817;SDS011;22761;51.542;16.450;2023-05-10T10:22:02;7.10;;;2.00;;
36817;SDS011;22761;51.542;16.450;2023-05-10T10:24:31;3.10;;;1.90;;
36817;SDS011;22761;51.542;16.450;2023-05-10T10:27:01;4.80;;;1.60;;
36817;SDS011;22761;51.542;16.450;2023-05-10T10:35:55;3.00;;;1.90;;
36817;SDS011;22761;51.542;16.450;2023-05-10T10:38:35;2.20;;;1.70;;
36817;SDS011;22761;51.542;16.450;2023-05-10T10:44:58;5.50;;;2.00;;
36817;SDS011;22761;51.542;16.450;2023-05-10T10:50:01;5.20;;;1.90;;
36817;SDS011;22761;51.542;16.450;2023-05-10T11:03:06;2.90;;;1.60;;
36817;SDS011;22761;51.542;16.450;2023-05-10T11:05:37;2.70;;;1.60;;
36817;SDS011;22761;51.542;16.450;2023-05-10T11:08:08;3.20;;;1.80;;
36817;SDS011;22761;51.542;16.450;2023-05-10T11:10:38;4.20;;;1.70;;
36817;SDS011;22761;51.542;16.450;2023-05-10T11:13:10;1.90;;;1.40;;
36817;SDS011;22761;51.542;16.450;2023-05-10T11:15:38;2.90;;;1.50;;
36817;SDS011;22761;51.542;16.450;2023-05-10T11:18:23;4.00;;;1.70;;
36817;SDS011;22761;51.542;16.450;2023-05-10T11:20:57;2.90;;;1.70;;
36817;SDS011;22761;51.542;16.450;2023-05-10T11:23:51;3.60;;;1.40;;
36817;SDS011;22761;51.542;16.450;2023-05-10T11:26:24;3.60;;;1.60;;
36817;SDS011;22761;51.542;16.450;2023-05-10T11:28:53;3.70;;;1.60;;
36817;SDS011;22761;51.542;16.450;2023-05-10T11:31:23;6.00;;;2.30;;
36817;SDS011;22761;51.542;16.450;2023-05-10T11:33:55;3.40;;;2.00;;
36817;SDS011;22761;51.542;16.450;2023-05-10T11:36:28;4.50;;;1.90;;
36817;SDS011;22761;51.542;16.450;2023-05-10T11:39:04;29.90;;;3.90;;
36817;SDS011;22761;51.542;16.450;2023-05-10T11:41:33;3.80;;;2.00;;
36817;SDS011;22761;51.542;16.450;2023-05-10T11:44:01;9.20;;;1.90;;
36817;SDS011;22761;51.542;16.450;2023-05-10T11:46:30;6.40;;;2.10;;
36817;SDS011;22761;51.542;16.450;2023-05-10T11:48:59;5.50;;;2.10;;
36817;SDS011;22761;51.542;16.450;2023-05-10T11:51:32;3.70;;;2.00;;
36817;SDS011;22761;51.542;16.450;2023-05-10T11:54:05;3.80;;;1.70;;
36817;SDS011;22761;51.542;16.450;2023-05-10T11:56:39;3.70;;;2.20;;
36817;SDS011;22761;51.542;16.450;2023-05-10T11:59:08;1.60;;;1.50;;
36817;SDS011;22761;51.542;16.450;2023-05-10T12:01:36;3.20;;;2.00;;
36817;SDS011;22761;51.542;16.450;2023-05-10T12:04:04;3.80;;;1.80;;
36817;SDS011;22761;51.542;16.450;2023-05-10T12:06:35;6.60;;;2.10;;
36817;SDS011;22761;51.542;16.450;2023-05-10T12:09:06;5.30;;;1.80;;
36817;SDS011;22761;51.542;16.450;2023-05-10T12:14:11;4.70;;;1.90;;
36817;SDS011;22761;51.542;16.450;2023-05-10T12:16:39;2.70;;;2.00;;
36817;SDS011;22761;51.542;16.450;2023-05-10T12:19:08;2.90;;;1.50;;
36817;SDS011;22761;51.542;16.450;2023-05-10T12:21:37;5.40;;;1.60;;
36817;SDS011;22761;51.542;16.450;2023-05-10T12:24:06;8.10;;;1.90;;
36817;SDS011;22761;51.542;16.450;2023-05-10T12:26:35;4.30;;;1.80;;
36817;SDS011;22761;51.542;16.450;2023-05-10T12:29:21;2.90;;;1.50;;
36817;SDS011;22761;51.542;16.450;2023-05-10T12:36:59;4.90;;;1.80;;
36817;SDS011;22761;51.542;16.450;2023-05-10T12:39:41;4.80;;;1.70;;
36817;SDS011;22761;51.542;16.450;2023-05-10T12:42:11;5.40;;;1.50;;
36817;SDS011;22761;51.542;16.450;2023-05-10T12:44:40;2.70;;;1.60;;
36817;SDS011;22761;51.542;16.450;2023-05-10T12:47:08;3.90;;;1.50;;
36817;SDS011;22761;51.542;16.450;2023-05-10T12:49:36;1.90;;;1.40;;
36817;SDS011;22761;51.542;16.450;2023-05-10T12:52:05;1.90;;;1.30;;
36817;SDS011;22761;51.542;16.450;2023-05-10T12:54:33;1.80;;;1.40;;
36817;SDS011;22761;51.542;16.450;2023-05-10T12:57:01;3.60;;;1.30;;
36817;SDS011;22761;51.542;16.450;2023-05-10T12:59:29;2.90;;;1.20;;
36817;SDS011;22761;51.542;16.450;2023-05-10T13:01:58;4.70;;;1.40;;
36817;SDS011;22761;51.542;16.450;2023-05-10T13:04:26;3.60;;;1.30;;
36817;SDS011;22761;51.542;16.450;2023-05-10T13:06:55;3.30;;;1.40;;
36817;SDS011;22761;51.542;16.450;2023-05-10T13:09:27;4.50;;;1.60;;
36817;SDS011;22761;51.542;16.450;2023-05-10T13:11:58;5.40;;;1.30;;
36817;SDS011;22761;51.542;16.450;2023-05-10T13:14:27;3.70;;;1.40;;
36817;SDS011;22761;51.542;16.450;2023-05-10T13:16:55;1.70;;;1.60;;
36817;SDS011;22761;51.542;16.450;2023-05-10T13:19:25;2.80;;;1.70;;
36817;SDS011;22761;51.542;16.450;2023-05-10T13:21:54;1.70;;;1.30;;
36817;SDS011;22761;51.542;16.450;2023-05-10T13:24:22;2.50;;;1.40;;
36817;SDS011;22761;51.542;16.450;2023-05-10T13:26:51;4.70;;;1.90;;
36817;SDS011;22761;51.542;16.450;2023-05-10T13:29:20;2.80;;;1.40;;
36817;SDS011;22761;51.542;16.450;2023-05-10T13:31:50;2.70;;;1.40;;
36817;SDS011;22761;51.542;16.450;2023-05-10T13:34:19;2.30;;;1.50;;
36817;SDS011;22761;51.542;16.450;2023-05-10T13:36:50;3.30;;;1.40;;
36817;SDS011;22761;51.542;16.450;2023-05-10T13:39:20;3.20;;;1.30;;
36817;SDS011;22761;51.542;16.450;2023-05-10T13:41:49;2.30;;;1.70;;
36817;SDS011;22761;51.542;16.450;2023-05-10T13:44:17;3.10;;;1.60;;
36817;SDS011;22761;51.542;16.450;2023-05-10T13:46:46;2.80;;;1.30;;
36817;SDS011;22761;51.542;16.450;2023-05-10T13:49:14;4.70;;;1.60;;
36817;SDS011;22761;51.542;16.450;2023-05-10T13:51:43;3.30;;;1.40;;
36817;SDS011;22761;51.542;16.450;2023-05-10T13:54:11;2.40;;;1.70;;
36817;SDS011;22761;51.542;16.450;2023-05-10T13:56:41;3.30;;;1.40;;
36817;SDS011;22761;51.542;16.450;2023-05-10T13:59:10;1.80;;;1.60;;
36817;SDS011;22761;51.542;16.450;2023-05-10T14:01:38;3.00;;;1.60;;
36817;SDS011;22761;51.542;16.450;2023-05-10T14:04:07;2.40;;;1.50;;
36817;SDS011;22761;51.542;16.450;2023-05-10T14:06:38;2.70;;;1.20;;
36817;SDS011;22761;51.542;16.450;2023-05-10T14:09:06;2.40;;;1.60;;
36817;SDS011;22761;51.542;16.450;2023-05-10T14:11:35;2.30;;;1.70;;
36817;SDS011;22761;51.542;16.450;2023-05-10T14:14:03;4.20;;;2.30;;
36817;SDS011;22761;51.542;16.450;2023-05-10T14:16:31;3.70;;;1.90;;
36817;SDS011;22761;51.542;16.450;2023-05-10T14:19:01;5.50;;;1.80;;
36817;SDS011;22761;51.542;16.450;2023-05-10T14:21:30;3.80;;;1.40;;
36817;SDS011;22761;51.542;16.450;2023-05-10T14:23:58;3.30;;;1.50;;
36817;SDS011;22761;51.542;16.450;2023-05-10T14:26:27;4.90;;;1.70;;
36817;SDS011;22761;51.542;16.450;2023-05-10T14:28:55;2.30;;;1.40;;
36817;SDS011;22761;51.542;16.450;2023-05-10T14:31:24;4.00;;;1.60;;
36817;SDS011;22761;51.542;16.450;2023-05-10T14:33:53;3.70;;;1.60;;
36817;SDS011;22761;51.542;16.450;2023-05-10T14:36:21;3.10;;;1.50;;
36817;SDS011;22761;51.542;16.450;2023-05-10T14:38:50;2.40;;;1.40;;
36817;SDS011;22761;51.542;16.450;2023-05-10T14:41:19;3.10;;;1.60;;
36817;SDS011;22761;51.542;16.450;2023-05-10T14:43:47;3.10;;;1.50;;
36817;SDS011;22761;51.542;16.450;2023-05-10T14:46:16;2.30;;;1.40;;
36817;SDS011;22761;51.542;16.450;2023-05-10T14:48:44;5.00;;;1.50;;
36817;SDS011;22761;51.542;16.450;2023-05-10T14:51:13;1.50;;;1.10;;
36817;SDS011;22761;51.542;16.450;2023-05-10T14:53:42;4.30;;;1.60;;
36817;SDS011;22761;51.542;16.450;2023-05-10T14:56:10;2.40;;;1.40;;
36817;SDS011;22761;51.542;16.450;2023-05-10T14:58:38;2.70;;;1.40;;
36817;SDS011;22761;51.542;16.450;2023-05-10T15:01:07;1.10;;;0.90;;
36817;SDS011;22761;51.542;16.450;2023-05-10T15:03:36;2.60;;;1.10;;
36817;SDS011;22761;51.542;16.450;2023-05-10T15:06:05;1.80;;;1.20;;
36817;SDS011;22761;51.542;16.450;2023-05-10T15:08:35;4.50;;;1.30;;
36817;SDS011;22761;51.542;16.450;2023-05-10T15:11:03;3.10;;;1.00;;
36817;SDS011;22761;51.542;16.450;2023-05-10T15:13:32;3.10;;;1.20;;
36817;SDS011;22761;51.542;16.450;2023-05-10T15:16:01;1.70;;;1.20;;
36817;SDS011;22761;51.542;16.450;2023-05-10T15:18:30;4.50;;;1.20;;
36817;SDS011;22761;51.542;16.450;2023-05-10T15:20:58;1.30;;;1.10;;
36817;SDS011;22761;51.542;16.450;2023-05-10T15:23:26;7.90;;;1.50;;
36817;SDS011;22761;51.542;16.450;2023-05-10T15:25:55;3.20;;;1.10;;
36817;SDS011;22761;51.542;16.450;2023-05-10T15:28:25;3.60;;;1.20;;
36817;SDS011;22761;51.542;16.450;2023-05-10T15:30:53;2.20;;;1.10;;
36817;SDS011;22761;51.542;16.450;2023-05-10T15:33:22;2.50;;;1.50;;
36817;SDS011;22761;51.542;16.450;2023-05-10T15:35:51;2.40;;;1.10;;
36817;SDS011;22761;51.542;16.450;2023-05-10T15:38:21;6.20;;;1.50;;
36817;SDS011;22761;51.542;16.450;2023-05-10T15:40:50;2.60;;;1.70;;
36817;SDS011;22761;51.542;16.450;2023-05-10T15:43:18;2.10;;;1.00;;
36817;SDS011;22761;51.542;16.450;2023-05-10T15:45:47;3.40;;;1.40;;
36817;SDS011;22761;51.542;16.450;2023-05-10T15:48:16;5.00;;;1.20;;